Time;durP1;ratioP1;P1;durP2;ratioP2;P2;SDS_P1;SDS_P2;PMS_P1;PMS_P2;Temp;Humidity;BMP_temperature;BMP_pressure;BME280_temperature;BME280_humidity;BME280_pressure;Samples;Min_cycle;Max_cycle;Signal;HPM_P1;HPM_P2
2023/07/25 00:00:11;;;;;;;14.55;4.82;;;;;;;11.57;100.00;100471.88;10467508;28;20049;-65
2023/07/25 00:05:11;;;;;;;9.90;4.05;;;;;;;11.57;100.00;100463.59;10464399;28;21189;-66
2023/07/25 00:10:12;;;;;;;14.05;4.20;;;;;;;11.51;100.00;100460.03;10459294;28;20029;-65
2023/07/25 00:15:13;;;;;;;12.18;4.22;;;;;;;11.49;100.00;100456.72;10481984;28;20104;-65
2023/07/25 00:20:14;;;;;;;14.35;4.50;;;;;;;11.42;100.00;100438.75;10458846;28;20125;-66
2023/07/25 00:25:15;;;;;;;7.63;3.58;;;;;;;11.50;100.00;100457.53;10463191;28;20063;-66
2023/07/25 00:30:16;;;;;;;6.30;3.45;;;;;;;11.44;100.00;100456.69;10483602;28;20048;-66
2023/07/25 00:35:17;;;;;;;9.85;3.83;;;;;;;11.46;100.00;100448.16;10455026;28;20055;-66
2023/07/25 00:40:17;;;;;;;9.45;4.60;;;;;;;11.42;100.00;100456.13;10475018;28;20041;-66
2023/07/25 00:45:17;;;;;;;9.43;4.00;;;;;;;11.44;100.00;100447.59;10463207;28;20036;-66
2023/07/25 00:50:18;;;;;;;9.57;4.68;;;;;;;11.38;100.00;100448.66;10469989;28;20044;-66
2023/07/25 00:55:18;;;;;;;8.63;3.67;;;;;;;11.32;100.00;100440.38;10461479;28;20146;-65
2023/07/25 01:00:19;;;;;;;12.63;4.82;;;;;;;11.30;100.00;100447.25;10458838;28;20045;-65
2023/07/25 01:05:19;;;;;;;7.03;5.25;;;;;;;11.26;100.00;100448.88;10478629;28;20369;-66
2023/07/25 01:10:20;;;;;;;8.10;3.60;;;;;;;11.13;100.00;100436.44;10431993;28;20059;-66
2023/07/25 01:15:20;;;;;;;11.02;4.25;;;;;;;11.16;100.00;100454.34;10461318;28;20048;-66
2023/07/25 01:20:21;;;;;;;9.65;3.90;;;;;;;11.15;100.00;100455.47;10457445;28;20052;-66
2023/07/25 01:25:21;;;;;;;13.50;5.32;;;;;;;11.06;100.00;100455.97;10423836;28;20053;-66
2023/07/25 01:30:22;;;;;;;11.88;4.43;;;;;;;11.01;100.00;100453.19;10461611;28;20048;-66
2023/07/25 01:35:22;;;;;;;9.32;3.85;;;;;;;10.66;100.00;100415.25;10447438;28;20100;-66
2023/07/25 01:40:23;;;;;;;13.00;3.67;;;;;;;10.90;100.00;100462.50;10480031;28;20108;-65
2023/07/25 01:45:23;;;;;;;10.60;4.43;;;;;;;10.84;100.00;100460.81;10473852;28;20033;-65
2023/07/25 01:50:24;;;;;;;25.70;9.77;;;;;;;10.73;100.00;100454.41;10478033;28;20056;-65
2023/07/25 01:55:24;;;;;;;35.33;18.63;;;;;;;10.74;100.00;100460.75;10452398;28;20091;-66
2023/07/25 02:00:25;;;;;;;44.10;21.48;;;;;;;10.68;100.00;100455.19;10473983;28;20040;-66
2023/07/25 02:05:25;;;;;;;24.50;14.23;;;;;;;10.58;100.00;100462.56;10474208;28;20075;-66
2023/07/25 02:10:27;;;;;;;23.70;11.45;;;;;;;10.56;100.00;100465.56;10436376;28;20079;-66
2023/07/25 02:15:27;;;;;;;19.20;9.57;;;;;;;10.51;100.00;100462.78;10476348;28;20049;-65
2023/07/25 02:20:31;;;;;;;23.05;11.20;;;;;;;10.48;100.00;100460.56;10459409;28;20561;-66
2023/07/25 02:25:32;;;;;;;27.77;13.43;;;;;;;10.49;100.00;100462.22;10458210;28;20052;-66
2023/07/25 02:30:32;;;;;;;31.98;17.10;;;;;;;10.57;100.00;100467.25;10474749;28;20037;-66
2023/07/25 02:35:33;;;;;;;39.05;20.70;;;;;;;10.70;100.00;100465.94;10471937;28;20044;-65
2023/07/25 02:40:33;;;;;;;40.60;22.02;;;;;;;10.87;100.00;100461.13;10465735;28;20033;-66
2023/07/25 02:45:34;;;;;;;40.55;20.52;;;;;;;11.01;100.00;100466.13;10478875;28;20044;-66
2023/07/25 02:50:34;;;;;;;49.05;24.42;;;;;;;11.18;100.00;100463.19;10452395;28;20120;-65
2023/07/25 02:55:36;;;;;;;35.03;18.88;;;;;;;11.30;100.00;100452.75;10460013;28;20146;-65
2023/07/25 03:00:37;;;;;;;36.97;19.15;;;;;;;11.34;100.00;100459.41;10470169;28;20125;-65
2023/07/25 03:05:37;;;;;;;39.17;17.35;;;;;;;11.43;100.00;100452.28;10475654;28;20048;-65
2023/07/25 03:10:38;;;;;;;31.63;12.73;;;;;;;11.48;100.00;100460.56;10455978;28;20146;-65
2023/07/25 03:15:38;;;;;;;24.50;10.68;;;;;;;11.53;100.00;100459.72;10474739;28;20053;-65
2023/07/25 03:20:39;;;;;;;14.45;6.90;;;;;;;11.57;100.00;100451.75;10472940;28;20052;-65
2023/07/25 03:25:39;;;;;;;15.00;6.32;;;;;;;11.67;100.00;100451.78;10452928;28;20396;-66
2023/07/25 03:30:40;;;;;;;12.45;4.97;;;;;;;11.66;100.00;100444.63;10456282;28;20041;-65
2023/07/25 03:35:41;;;;;;;14.07;4.80;;;;;;;11.70;100.00;100445.75;10408728;28;20040;-66
2023/07/25 03:40:41;;;;;;;15.00;4.35;;;;;;;11.75;100.00;100442.97;10450165;28;20067;-66
2023/07/25 03:45:42;;;;;;;16.85;5.72;;;;;;;11.74;100.00;100446.84;10475974;28;20040;-66
2023/07/25 03:50:42;;;;;;;11.73;5.00;;;;;;;11.75;100.00;100454.00;10454916;28;20037;-65
2023/07/25 03:55:43;;;;;;;16.67;4.72;;;;;;;11.77;100.00;100454.56;10469082;28;20056;-66
2023/07/25 04:00:43;;;;;;;11.35;4.13;;;;;;;11.83;100.00;100460.94;10472678;28;20044;-66
2023/07/25 04:05:44;;;;;;;13.90;4.90;;;;;;;11.84;100.00;100441.31;10468575;28;20524;-65
2023/07/25 04:10:44;;;;;;;11.82;4.50;;;;;;;12.02;100.00;100464.84;10458661;28;20060;-65
2023/07/25 04:15:45;;;;;;;16.08;4.93;;;;;;;12.10;100.00;100471.75;10477684;28;20055;-65
2023/07/25 04:20:45;;;;;;;8.95;4.18;;;;;;;12.19;100.00;100470.09;10478825;28;20045;-65
2023/07/25 04:25:46;;;;;;;10.35;4.30;;;;;;;12.29;100.00;100470.09;10468057;28;20037;-66
2023/07/25 04:30:46;;;;;;;10.05;3.47;;;;;;;12.37;100.00;100477.00;10461872;28;20040;-65
2023/07/25 04:35:47;;;;;;;12.80;3.92;;;;;;;12.47;100.00;100479.78;10458874;28;20036;-66
2023/07/25 04:40:47;;;;;;;9.82;3.17;;;;;;;12.54;100.00;100473.13;10447282;28;20033;-66
2023/07/25 04:45:48;;;;;;;6.30;3.33;;;;;;;12.61;100.00;100477.28;10457795;28;20041;-65
2023/07/25 04:50:48;;;;;;;10.65;3.10;;;;;;;12.67;100.00;100476.19;10480089;28;20053;-65
2023/07/25 04:55:49;;;;;;;15.70;4.30;;;;;;;12.65;100.00;100464.56;10455972;28;20120;-66
2023/07/25 05:00:49;;;;;;;10.65;2.70;;;;;;;12.86;100.00;100489.41;10461819;28;20041;-65
2023/07/25 05:05:51;;;;;;;11.82;4.25;;;;;;;12.96;100.00;100488.53;10463762;28;20037;-66
2023/07/25 05:10:53;;;;;;;7.82;2.50;;;;;;;13.03;100.00;100487.16;10439534;28;20044;-66
2023/07/25 05:15:53;;;;;;;6.95;2.92;;;;;;;13.11;100.00;100503.16;10438727;28;20404;-65
2023/07/25 05:20:54;;;;;;;11.85;4.70;;;;;;;13.11;100.00;100500.41;10475275;28;20497;-66
2023/07/25 05:25:54;;;;;;;10.30;3.50;;;;;;;13.15;100.00;100486.84;10461990;28;20412;-65
2023/07/25 05:30:55;;;;;;;8.82;3.42;;;;;;;13.13;100.00;100489.88;10473480;28;20073;-65
2023/07/25 05:36:00;;;;;;;5.65;2.80;;;;;;;13.14;100.00;100504.53;10474937;28;20204;-65
2023/07/25 05:41:00;;;;;;;6.95;3.08;;;;;;;13.14;100.00;100501.75;10476579;28;20484;-65
2023/07/25 05:46:01;;;;;;;9.93;3.45;;;;;;;13.16;100.00;100505.06;10477048;28;20033;-66
2023/07/25 05:51:01;;;;;;;12.27;3.92;;;;;;;13.18;100.00;100499.28;10477113;28;20369;-65
2023/07/25 05:56:02;;;;;;;10.38;3.35;;;;;;;13.07;100.00;100490.19;10473426;28;20050;-66
2023/07/25 06:01:02;;;;;;;8.05;3.15;;;;;;;13.12;100.00;100513.13;10456768;28;20036;-66
2023/07/25 06:06:03;;;;;;;11.93;3.03;;;;;;;13.12;100.00;100521.41;10472968;28;20036;-65
2023/07/25 06:11:03;;;;;;;10.13;4.60;;;;;;;13.43;100.00;100526.03;10477269;28;20040;-66
2023/07/25 06:16:04;;;;;;;6.35;3.20;;;;;;;13.80;100.00;100517.28;10466997;28;20041;-66
2023/07/25 06:21:04;;;;;;;11.07;2.95;;;;;;;14.16;100.00;100517.09;10479245;28;20116;-66
2023/07/25 06:26:05;;;;;;;15.07;3.28;;;;;;;14.48;100.00;100507.44;10454416;28;20064;-65
2023/07/25 06:31:05;;;;;;;9.95;3.70;;;;;;;14.72;100.00;100511.16;10458756;28;20028;-66
2023/07/25 06:36:06;;;;;;;7.45;1.77;;;;;;;14.97;100.00;100498.16;10471345;28;20520;-66
2023/07/25 06:41:06;;;;;;;7.15;1.80;;;;;;;15.14;100.00;100497.69;10475541;28;20043;-66
2023/07/25 06:46:06;;;;;;;3.55;1.35;;;;;;;15.37;100.00;100500.78;10473705;28;20101;-66
2023/07/25 06:51:07;;;;;;;6.28;2.05;;;;;;;15.38;100.00;100486.63;10474524;28;20071;-66
2023/07/25 06:56:07;;;;;;;5.03;1.27;;;;;;;15.51;100.00;100496.16;10474361;28;20048;-66
2023/07/25 07:01:08;;;;;;;4.93;1.40;;;;;;;15.45;100.00;100492.63;10471883;28;20032;-67
2023/07/25 07:06:08;;;;;;;7.45;1.17;;;;;;;15.48;100.00;100492.03;10475560;28;20068;-67
2023/07/25 07:11:09;;;;;;;4.53;1.23;;;;;;;15.83;100.00;100491.88;10469142;28;20032;-67
2023/07/25 07:16:09;;;;;;;5.70;0.90;;;;;;;15.93;100.00;100487.00;10471623;28;20040;-66
2023/07/25 07:21:10;;;;;;;4.43;1.10;;;;;;;15.80;100.00;100484.97;10435425;28;20083;-66
2023/07/25 07:26:10;;;;;;;3.35;0.70;;;;;;;15.88;100.00;100483.50;10462230;28;20029;-66
2023/07/25 07:31:12;;;;;;;3.70;1.13;;;;;;;15.91;100.00;100494.78;10455814;28;20420;-66
2023/07/25 07:36:12;;;;;;;3.92;0.85;;;;;;;16.27;100.00;100485.13;10452279;28;20061;-66
2023/07/25 07:41:13;;;;;;;4.95;1.10;;;;;;;16.54;100.00;100487.19;10453276;28;20052;-66
2023/07/25 07:46:13;;;;;;;5.97;1.50;;;;;;;16.57;100.00;100486.56;10467009;28;20041;-66
2023/07/25 07:51:14;;;;;;;4.90;0.90;;;;;;;16.54;100.00;100484.41;10468441;28;20041;-67
2023/07/25 07:56:14;;;;;;;2.65;0.60;;;;;;;16.49;100.00;100503.91;10471545;28;20064;-66
2023/07/25 08:01:18;;;;;;;6.70;1.13;;;;;;;16.56;100.00;100490.47;10476191;28;20056;-67
2023/07/25 08:06:18;;;;;;;4.18;0.60;;;;;;;16.87;100.00;100499.13;10442628;28;20105;-67
2023/07/25 08:11:19;;;;;;;3.40;0.60;;;;;;;16.97;100.00;100502.84;10449324;28;20036;-66
2023/07/25 08:16:19;;;;;;;3.15;0.65;;;;;;;16.41;100.00;100512.94;10464228;28;20429;-66
2023/07/25 08:21:20;;;;;;;4.07;0.60;;;;;;;16.36;100.00;100511.09;10459200;28;20083;-67
2023/07/25 08:26:21;;;;;;;5.72;0.68;;;;;;;16.85;100.00;100511.69;10463682;28;20033;-66
2023/07/25 08:31:21;;;;;;;3.17;0.63;;;;;;;17.25;100.00;100503.72;10481155;28;20025;-67
2023/07/25 08:36:21;;;;;;;1.40;0.45;;;;;;;17.65;100.00;100502.06;10479244;28;20052;-66
2023/07/25 08:41:25;;;;;;;2.60;0.43;;;;;;;18.24;100.00;100507.72;10465254;28;20044;-66
2023/07/25 08:46:26;;;;;;;3.20;0.50;;;;;;;18.32;100.00;100481.88;10427899;28;20630;-66
2023/07/25 08:51:27;;;;;;;5.05;0.77;;;;;;;17.79;100.00;100506.78;10457483;28;20037;-66
2023/07/25 08:56:28;;;;;;;2.25;0.75;;;;;;;17.84;100.00;100507.53;10479234;28;20043;-66
2023/07/25 09:01:28;;;;;;;5.60;0.55;;;;;;;18.45;100.00;100518.38;10440773;28;20033;-66
2023/07/25 09:06:30;;;;;;;2.97;0.50;;;;;;;18.06;100.00;100530.97;10457867;28;20047;-66
2023/07/25 09:11:30;;;;;;;4.05;1.20;;;;;;;18.09;100.00;100533.16;10439999;28;20052;-66
2023/07/25 09:16:31;;;;;;;5.68;0.90;;;;;;;18.16;100.00;100544.69;10443551;28;20048;-66
2023/07/25 09:21:31;;;;;;;3.38;0.60;;;;;;;18.43;100.00;100507.53;10456553;28;20049;-66
2023/07/25 09:26:32;;;;;;;4.97;0.52;;;;;;;18.87;100.00;100525.44;10475323;28;20029;-66
2023/07/25 09:31:41;;;;;;;2.47;0.35;;;;;;;19.03;100.00;100519.44;10451689;28;20129;-66
2023/07/25 09:36:47;;;;;;;1.75;0.40;;;;;;;19.31;100.00;100523.69;10435542;28;20045;-66
2023/07/25 09:41:47;;;;;;;6.35;0.55;;;;;;;19.56;100.00;100519.34;10443341;28;20033;-65
2023/07/25 09:46:52;;;;;;;4.78;0.40;;;;;;;19.10;100.00;100542.97;10435619;28;20040;-66
2023/07/25 09:52:04;;;;;;;3.35;0.60;;;;;;;18.91;100.00;100537.59;10440992;28;20070;-66
2023/07/25 09:57:05;;;;;;;3.45;0.50;;;;;;;19.43;100.00;100522.25;10440414;28;20456;-67
2023/07/25 10:02:06;;;;;;;2.35;0.63;;;;;;;19.28;100.00;100517.91;10440836;28;20041;-67
2023/07/25 10:07:06;;;;;;;1.13;0.50;;;;;;;19.11;100.00;100524.25;10421133;28;20168;-67
2023/07/25 10:12:07;;;;;;;2.65;1.08;;;;;;;19.70;100.00;100527.63;10425026;28;20098;-67
2023/07/25 10:17:07;;;;;;;1.85;0.40;;;;;;;19.60;96.34;100516.72;10437731;28;20071;-67
2023/07/25 10:22:08;;;;;;;1.35;0.30;;;;;;;19.32;98.57;100518.91;10412505;28;20043;-67
2023/07/25 10:27:11;;;;;;;1.15;0.40;;;;;;;19.14;98.57;100524.44;10415067;28;20041;-67
2023/07/25 10:32:15;;;;;;;2.90;0.50;;;;;;;19.56;100.00;100524.94;10407626;28;20048;-67
2023/07/25 10:37:19;;;;;;;1.95;0.57;;;;;;;18.89;100.00;100550.19;10444545;28;20056;-67
2023/07/25 10:42:21;;;;;;;2.08;0.55;;;;;;;18.19;100.00;100562.72;10478266;28;20041;-68
2023/07/25 10:47:48;;;;;;;2.42;0.50;;;;;;;18.02;100.00;100569.78;10424862;28;20489;-69
2023/07/25 10:52:48;;;;;;;6.60;1.25;;;;;;;17.95;100.00;100575.78;10453442;28;20051;-70
2023/07/25 10:58:11;;;;;;;3.92;0.50;;;;;;;18.19;100.00;100551.59;10462728;28;20061;-69
2023/07/25 11:03:35;;;;;;;2.95;0.82;;;;;;;19.34;100.00;100542.56;10426416;28;20370;-68
2023/07/25 11:08:37;;;;;;;10.57;1.15;;;;;;;19.33;100.00;100542.91;10453661;28;20044;-68
2023/07/25 11:13:39;;;;;;;2.20;0.45;;;;;;;18.62;100.00;100543.59;10439665;28;20041;-69
2023/07/25 11:18:49;;;;;;;1.83;0.50;;;;;;;18.79;100.00;100540.16;10442042;28;20048;-69
2023/07/25 11:23:50;;;;;;;2.08;0.70;;;;;;;18.72;100.00;100542.50;10422165;28;20094;-68
2023/07/25 11:28:50;;;;;;;3.20;0.60;;;;;;;19.17;100.00;100548.06;10417186;28;20072;-69
2023/07/25 11:33:51;;;;;;;5.82;0.90;;;;;;;18.89;100.00;100505.56;10434170;28;20040;-69
2023/07/25 11:38:56;;;;;;;6.30;1.15;;;;;;;19.35;100.00;100529.47;10443822;28;20036;-68
2023/07/25 11:43:56;;;;;;;3.33;0.60;;;;;;;19.74;98.23;100530.56;10467735;28;20047;-68
2023/07/25 11:48:56;;;;;;;3.10;0.40;;;;;;;19.18;96.56;100540.53;10445028;28;20040;-68
2023/07/25 11:53:57;;;;;;;1.38;0.40;;;;;;;18.65;100.00;100561.66;10468854;28;20060;-69
2023/07/25 11:58:59;;;;;;;3.22;0.70;;;;;;;18.57;100.00;100554.06;10454608;28;20037;-68
2023/07/25 12:04:02;;;;;;;2.33;0.40;;;;;;;18.86;100.00;100550.84;10470950;28;20131;-68
2023/07/25 12:09:03;;;;;;;1.30;0.43;;;;;;;19.42;95.68;100540.97;10443038;28;20037;-67
2023/07/25 12:14:04;;;;;;;1.90;0.45;;;;;;;20.00;98.90;100552.19;10467439;28;20067;-67
2023/07/25 12:19:05;;;;;;;2.03;0.35;;;;;;;19.62;95.93;100552.72;10433373;28;20065;-67
2023/07/25 12:24:10;;;;;;;3.50;0.98;;;;;;;19.66;94.44;100534.16;10489678;28;20040;-67
2023/07/25 12:29:17;;;;;;;1.80;0.40;;;;;;;19.40;92.84;100560.00;10449645;28;20087;-67
2023/07/25 12:34:20;;;;;;;2.35;0.60;;;;;;;19.47;94.07;100552.00;10467294;28;20056;-67
2023/07/25 12:39:20;;;;;;;2.33;0.30;;;;;;;20.03;88.52;100545.94;10444009;28;20461;-67
2023/07/25 12:44:21;;;;;;;3.03;0.32;;;;;;;20.60;83.17;100528.22;10439873;28;20044;-67
2023/07/25 12:49:21;;;;;;;1.65;0.35;;;;;;;20.31;85.01;100538.88;10423166;28;20044;-67
2023/07/25 12:54:22;;;;;;;1.35;0.30;;;;;;;19.87;92.41;100571.53;10462826;28;20044;-67
2023/07/25 12:59:22;;;;;;;0.85;0.32;;;;;;;19.82;91.65;100568.88;10479867;28;20100;-69
2023/07/25 13:04:23;;;;;;;1.95;0.45;;;;;;;19.41;91.61;100566.41;10458641;28;20456;-68
2023/07/25 13:09:24;;;;;;;1.70;0.55;;;;;;;19.35;97.68;100586.09;10444219;28;20080;-67
2023/07/25 13:14:24;;;;;;;0.73;0.30;;;;;;;19.46;94.67;100575.47;10442455;28;20108;-67
2023/07/25 13:19:25;;;;;;;2.88;1.23;;;;;;;20.50;94.78;100565.69;10474009;28;20392;-67
2023/07/25 13:24:25;;;;;;;0.95;0.40;;;;;;;20.36;88.00;100572.28;10412149;28;20068;-67
2023/07/25 13:29:27;;;;;;;3.15;0.73;;;;;;;19.86;90.63;100580.25;10470967;28;20040;-67
2023/07/25 13:34:27;;;;;;;1.45;0.55;;;;;;;20.17;89.63;100563.38;10415189;28;20041;-66
2023/07/25 13:39:28;;;;;;;2.83;0.50;;;;;;;19.83;88.46;100573.34;10455774;28;20036;-67
2023/07/25 13:44:28;;;;;;;2.10;0.57;;;;;;;19.53;91.82;100598.19;10460549;28;20052;-68
2023/07/25 13:49:29;;;;;;;1.77;0.50;;;;;;;19.64;92.96;100586.72;10438306;28;20041;-67
2023/07/25 13:54:30;;;;;;;1.38;0.47;;;;;;;20.22;90.02;100580.00;10426666;28;20041;-67
2023/07/25 13:59:30;;;;;;;3.45;0.40;;;;;;;20.32;87.11;100571.31;10427141;28;20124;-67
2023/07/25 14:04:31;;;;;;;1.10;0.45;;;;;;;19.85;89.17;100587.81;10451493;28;20277;-68
2023/07/25 14:09:31;;;;;;;4.03;0.75;;;;;;;19.23;94.83;100610.16;10437031;28;20101;-67
2023/07/25 14:14:32;;;;;;;3.15;0.80;;;;;;;19.34;97.76;100622.69;10424618;28;20072;-67
2023/07/25 14:19:32;;;;;;;3.47;0.30;;;;;;;19.37;88.31;100588.56;10404818;28;20044;-67
2023/07/25 14:24:33;;;;;;;2.50;0.30;;;;;;;19.17;88.48;100589.13;10393940;28;20116;-67
2023/07/25 14:29:34;;;;;;;0.98;0.30;;;;;;;19.63;87.80;100585.88;10430321;28;20037;-68
2023/07/25 14:34:34;;;;;;;2.00;0.60;;;;;;;20.76;84.64;100594.53;10413262;28;20083;-67
2023/07/25 14:39:35;;;;;;;1.38;0.40;;;;;;;19.80;82.48;100584.34;10440363;28;20045;-68
2023/07/25 14:44:35;;;;;;;0.95;0.40;;;;;;;19.68;83.84;100601.69;10400236;28;20037;-68
2023/07/25 14:49:36;;;;;;;1.15;0.55;;;;;;;20.92;84.02;100599.63;10397840;28;20033;-67
2023/07/25 14:54:36;;;;;;;2.50;0.68;;;;;;;21.16;81.46;100594.28;10395348;28;20053;-68
2023/07/25 14:59:37;;;;;;;2.55;0.63;;;;;;;21.08;81.03;100595.13;10445412;28;20033;-67
2023/07/25 15:04:37;;;;;;;3.55;0.80;;;;;;;21.46;82.55;100600.03;10434379;28;20059;-67
2023/07/25 15:09:38;;;;;;;1.38;0.73;;;;;;;21.82;79.90;100595.91;10437143;28;20040;-66
2023/07/25 15:14:38;;;;;;;2.33;0.60;;;;;;;21.11;83.33;100610.47;10402093;28;20069;-67
2023/07/25 15:19:38;;;;;;;4.70;0.60;;;;;;;20.02;85.05;100628.13;10460351;28;20044;-67
2023/07/25 15:24:39;;;;;;;1.25;0.75;;;;;;;19.68;87.76;100638.81;10420481;28;20067;-67
2023/07/25 15:29:39;;;;;;;2.38;0.40;;;;;;;19.93;88.05;100634.50;10452125;28;20037;-66
2023/07/25 15:34:41;;;;;;;2.60;0.60;;;;;;;20.81;85.18;100623.47;10403251;28;20053;-67
2023/07/25 15:39:41;;;;;;;2.33;0.60;;;;;;;20.20;86.90;100635.41;10423749;28;20056;-68
2023/07/25 15:44:42;;;;;;;4.70;0.73;;;;;;;20.26;85.47;100636.91;10425530;28;20064;-68
2023/07/25 15:49:42;;;;;;;2.72;0.60;;;;;;;20.16;81.40;100629.63;10420977;28;20044;-68
2023/07/25 15:54:43;;;;;;;2.58;0.60;;;;;;;20.51;79.39;100631.69;10392291;28;20053;-67
2023/07/25 15:59:45;;;;;;;1.60;0.47;;;;;;;20.57;79.01;100630.38;10376071;28;20145;-67
2023/07/25 16:04:45;;;;;;;2.30;0.60;;;;;;;20.10;81.20;100642.13;10363191;28;20037;-68
2023/07/25 16:09:46;;;;;;;2.58;0.60;;;;;;;19.60;85.01;100658.34;10417798;28;20641;-70
2023/07/25 16:14:46;;;;;;;2.97;0.68;;;;;;;19.31;88.03;100666.03;10422670;28;20076;-69
2023/07/25 16:19:47;;;;;;;2.45;0.65;;;;;;;19.29;88.53;100667.50;10391271;28;20044;-67
2023/07/25 16:24:47;;;;;;;1.85;1.10;;;;;;;18.54;90.31;100659.50;10419061;28;20033;-68
2023/07/25 16:29:48;;;;;;;1.48;0.70;;;;;;;18.15;92.28;100671.22;10415625;28;20057;-68
2023/07/25 16:34:48;;;;;;;3.03;0.73;;;;;;;18.13;96.32;100687.41;10396323;28;20087;-67
2023/07/25 16:39:49;;;;;;;3.88;0.52;;;;;;;17.89;97.86;100702.34;10428988;28;20063;-68
2023/07/25 16:44:49;;;;;;;3.90;0.73;;;;;;;17.46;99.82;100643.28;10403824;28;20454;-68
2023/07/25 16:49:50;;;;;;;1.83;0.60;;;;;;;17.70;100.00;100688.47;10427040;28;20033;-69
2023/07/25 16:54:50;;;;;;;5.25;1.38;;;;;;;18.19;100.00;100705.69;10401839;28;20049;-68
2023/07/25 16:59:51;;;;;;;4.70;0.70;;;;;;;18.01;100.00;100701.84;10400828;28;20446;-66
2023/07/25 17:04:54;;;;;;;2.40;0.70;;;;;;;17.70;100.00;100676.53;10404375;28;20113;-68
2023/07/25 17:09:54;;;;;;;1.17;0.60;;;;;;;17.91;99.99;100700.06;10408255;28;20045;-67
2023/07/25 17:14:55;;;;;;;1.25;0.80;;;;;;;17.68;97.30;100687.94;10374896;28;20068;-67
2023/07/25 17:19:56;;;;;;;1.38;0.60;;;;;;;17.39;99.52;100706.88;10396762;28;20075;-66
2023/07/25 17:24:56;;;;;;;2.72;0.68;;;;;;;17.27;100.00;100716.50;10389528;28;20045;-67
2023/07/25 17:29:57;;;;;;;1.75;1.00;;;;;;;17.15;100.00;100721.69;10426311;28;20506;-68
2023/07/25 17:34:57;;;;;;;3.20;0.80;;;;;;;16.94;100.00;100733.13;10409919;28;20045;-67
2023/07/25 17:39:58;;;;;;;2.20;0.77;;;;;;;16.69;100.00;100731.50;10432678;28;20045;-68
2023/07/25 17:44:58;;;;;;;2.55;0.68;;;;;;;16.58;100.00;100740.28;10399690;28;20419;-66
2023/07/25 17:49:59;;;;;;;1.90;0.50;;;;;;;16.49;100.00;100737.34;10387197;28;20120;-67
2023/07/25 17:54:59;;;;;;;2.05;0.80;;;;;;;16.39;100.00;100743.03;10399876;28;20045;-67
2023/07/25 18:00:00;;;;;;;2.03;0.70;;;;;;;16.34;100.00;100744.75;10400752;28;20037;-67
2023/07/25 18:05:01;;;;;;;1.75;0.70;;;;;;;16.38;100.00;100758.06;10415664;28;20038;-67
2023/07/25 18:10:01;;;;;;;5.07;0.85;;;;;;;16.37;100.00;100757.22;10440631;28;20033;-67
2023/07/25 18:15:02;;;;;;;2.30;0.80;;;;;;;16.27;100.00;100747.06;10386732;28;20067;-66
2023/07/25 18:20:03;;;;;;;3.78;0.80;;;;;;;16.15;100.00;100757.75;10425271;28;20604;-67
2023/07/25 18:25:05;;;;;;;3.58;1.50;;;;;;;15.99;100.00;100754.31;10435041;28;20104;-67
2023/07/25 18:30:06;;;;;;;2.38;0.80;;;;;;;15.91;100.00;100761.31;10429964;28;20061;-67
2023/07/25 18:35:07;;;;;;;3.60;0.80;;;;;;;15.91;100.00;100769.66;10432406;28;20100;-67
2023/07/25 18:40:08;;;;;;;2.90;0.70;;;;;;;15.89;100.00;100773.84;10420057;28;20053;-68
2023/07/25 18:45:09;;;;;;;3.50;0.80;;;;;;;15.81;100.00;100771.69;10416429;28;20042;-67
2023/07/25 18:50:11;;;;;;;3.75;1.27;;;;;;;15.72;100.00;100788.16;10420373;28;20060;-67
2023/07/25 18:55:12;;;;;;;3.58;0.80;;;;;;;15.60;100.00;100780.16;10414442;28;20041;-67
2023/07/25 19:00:13;;;;;;;6.82;1.02;;;;;;;15.60;100.00;100793.22;10398327;28;20104;-67
2023/07/25 19:05:13;;;;;;;4.30;0.90;;;;;;;15.49;100.00;100793.31;10416332;28;20049;-68
2023/07/25 19:10:14;;;;;;;1.98;0.75;;;;;;;15.52;100.00;100805.75;10419206;28;20068;-67
2023/07/25 19:15:14;;;;;;;4.07;1.65;;;;;;;15.37;100.00;100806.72;10399174;28;20629;-66
2023/07/25 19:20:15;;;;;;;2.33;1.05;;;;;;;15.29;100.00;100821.19;10384330;28;20093;-67
2023/07/25 19:25:15;;;;;;;2.63;0.93;;;;;;;15.10;100.00;100824.63;10416427;28;20036;-66
2023/07/25 19:30:16;;;;;;;2.15;0.88;;;;;;;14.88;100.00;100822.28;10416843;28;20057;-67
2023/07/25 19:35:16;;;;;;;2.38;0.90;;;;;;;14.68;100.00;100831.50;10399647;28;20036;-68
2023/07/25 19:40:17;;;;;;;2.60;1.35;;;;;;;14.51;100.00;100839.25;10432872;28;20508;-67
2023/07/25 19:45:17;;;;;;;1.88;0.73;;;;;;;14.42;100.00;100832.66;10424977;28;20061;-67
2023/07/25 19:50:18;;;;;;;1.98;0.52;;;;;;;14.27;100.00;100839.88;10428711;28;20096;-68
2023/07/25 19:55:19;;;;;;;3.63;0.80;;;;;;;14.13;100.00;100866.47;10390211;28;20049;-67
2023/07/25 20:00:19;;;;;;;1.60;0.70;;;;;;;14.02;100.00;100856.53;10423553;28;20074;-68
2023/07/25 20:05:20;;;;;;;1.77;0.80;;;;;;;13.90;100.00;100863.16;10437834;28;20037;-68
2023/07/25 20:10:21;;;;;;;2.97;0.85;;;;;;;13.72;100.00;100850.72;10408031;28;20095;-67
2023/07/25 20:15:21;;;;;;;3.55;0.70;;;;;;;13.65;100.00;100855.69;10351551;28;20976;-67
2023/07/25 20:20:22;;;;;;;3.00;1.00;;;;;;;13.55;100.00;100872.28;10356081;28;20045;-67
2023/07/25 20:25:22;;;;;;;2.80;1.52;;;;;;;13.51;100.00;100876.69;10343303;28;20125;-67
2023/07/25 20:30:23;;;;;;;2.33;1.30;;;;;;;13.41;100.00;100874.72;10368565;28;20101;-67
2023/07/25 20:35:24;;;;;;;2.22;1.50;;;;;;;13.37;100.00;100875.56;10351293;28;20034;-67
2023/07/25 20:40:24;;;;;;;6.55;1.25;;;;;;;13.42;100.00;100881.94;10386932;28;20497;-67
2023/07/25 20:45:25;;;;;;;3.42;1.48;;;;;;;13.38;100.00;100894.66;10399843;28;20072;-67
2023/07/25 20:50:25;;;;;;;3.97;1.20;;;;;;;13.29;100.00;100886.06;10442461;28;20041;-68
2023/07/25 20:55:26;;;;;;;5.03;1.25;;;;;;;13.21;100.00;100888.47;10416743;28;21799;-66
2023/07/25 21:00:26;;;;;;;5.70;1.42;;;;;;;13.07;100.00;100890.94;10386941;28;20386;-66
2023/07/25 21:05:27;;;;;;;5.13;1.70;;;;;;;13.07;100.00;100896.47;10417669;28;20044;-67
2023/07/25 21:10:27;;;;;;;3.55;1.27;;;;;;;12.93;100.00;100904.41;10418047;28;20033;-67
2023/07/25 21:15:28;;;;;;;3.40;1.10;;;;;;;12.93;100.00;100909.94;10402587;28;20064;-67
2023/07/25 21:20:29;;;;;;;4.50;1.20;;;;;;;12.84;100.00;100900.50;10441016;28;20053;-67
2023/07/25 21:25:29;;;;;;;2.75;1.10;;;;;;;12.85;100.00;100904.91;10406682;28;20090;-67
2023/07/25 21:30:30;;;;;;;7.32;1.17;;;;;;;12.88;100.00;100901.63;10399056;28;20687;-67
2023/07/25 21:35:30;;;;;;;2.88;1.20;;;;;;;12.88;100.00;100898.88;10405898;28;20055;-69
2023/07/25 21:40:31;;;;;;;5.10;1.35;;;;;;;12.86;100.00;100901.06;10400469;28;20046;-67
2023/07/25 21:45:32;;;;;;;3.55;2.13;;;;;;;12.75;100.00;100889.13;10415522;28;20042;-67
2023/07/25 21:50:32;;;;;;;1.75;1.00;;;;;;;12.81;100.00;100903.78;10410851;28;20092;-67
2023/07/25 21:55:33;;;;;;;4.47;1.42;;;;;;;12.76;100.00;100903.78;10410261;28;20076;-66
2023/07/25 22:00:33;;;;;;;4.32;1.17;;;;;;;12.67;100.00;100903.44;10407055;28;20311;-67
2023/07/25 22:05:34;;;;;;;4.72;1.27;;;;;;;12.62;100.00;100914.47;10428628;28;20037;-67
2023/07/25 22:10:34;;;;;;;4.43;1.52;;;;;;;12.61;100.00;100908.13;10437042;28;20071;-67
2023/07/25 22:15:35;;;;;;;2.25;1.48;;;;;;;12.55;100.00;100909.19;10403851;28;20109;-67
2023/07/25 22:20:36;;;;;;;4.78;1.13;;;;;;;12.52;100.00;100920.75;10432676;28;20067;-68
2023/07/25 22:25:37;;;;;;;2.35;1.17;;;;;;;12.45;100.00;100918.22;10417844;28;20051;-66
2023/07/25 22:30:37;;;;;;;2.05;0.90;;;;;;;12.45;100.00;100920.16;10430637;28;20065;-68
2023/07/25 22:35:38;;;;;;;5.05;1.48;;;;;;;12.41;100.00;100913.50;10414080;28;20061;-67
2023/07/25 22:40:39;;;;;;;2.58;1.00;;;;;;;12.40;100.00;100925.63;10435863;28;20124;-67
2023/07/25 22:45:39;;;;;;;7.13;1.45;;;;;;;12.36;100.00;100914.31;10434646;28;20037;-67